Aérodrome :
LOGIN :

S'inscrire | Disclaimer

   EN    FR    IT 

 










Légende :    VFR   VFR Marginal   IFR   IFR Intensif   IFR Très Intensif
Visi : 
Plafond : 
>= 8 km
>= 3000ft
5 à 8 km
1000 à 3000 ft
1500m à 5 km
500 à 1000 ft
800 à 1500m
200 à 500 ft
< 800m
< 200 ft
Symboles :   Orages  Brouillard  Fortes neiges  Fortes précipitations  Vent > 20 kt
SIGMETs :   Divers  Orages  Givrage  Turbulence  Onde Orograph.  Cendres Volcan.






- Altitude de l'aérodrome : 257 ft
- Code IATA : MAN


EGCC - Manchester

DERNIER METAR :
  • 180720Z AUTO 21012KT 9999 NCD 05/01 Q1013 NOSIG

METARs EXPIRÉS :
  • 180650Z AUTO 21009KT 190V250 9999 SCT027 BKN038 05/01 Q1013
  • 180620Z AUTO 21009KT 9999 SCT043 04/01 Q1013 NOSIG
  • 180550Z AUTO 22011KT 9999 NCD 04/01 Q1013 NOSIG
  • 180520Z AUTO 23011KT 9999 NCD 04/01 Q1013 NOSIG
  • 180450Z AUTO 22010KT 9999 NCD 04/01 Q1013 NOSIG

TAF TAF EGCC
Valide du 18 à 06h jusqu'au 19 à 12h UTC


180502Z 1806/1912 23012KT 9999 FEW030
PROB30
TEMPO 1806/1812 7000 SHRA
TEMPO 1812/1820 24018G28KT 7000 SHRA
PROB30
TEMPO 1812/1820 25025G40KT 3000 +SHRAGS BKN014 BKN020CB
PROB30
TEMPO 1820/1903 25018G28KT 7000 SHRA
TEMPO 1910/1912 6000 -RA BKN010
ATIS : +44 161 499 2324



MET'MAP, la Météo Aéronautique d'un coup d'oeil ! - Copyright ORBIFLY Décembre 2007 - Disclaimer

ORBIFLY MET'MAP TEAM :

Programmation & Développement : Alexandra Zaïnal
Sur une idée originale de : Baudouin d'Aumeries
Assistance à la programmation : Marc-Olivier Méhu
Soutien technique & logistique : Manuel Goepfert

Contact : metmap@orbifly.com




SOURCES & CREDITS :

   NOAA